Time;durP1;ratioP1;P1;durP2;ratioP2;P2;SDS_P1;SDS_P2;PMS_P1;PMS_P2;Temp;Humidity;BMP_temperature;BMP_pressure;BME280_temperature;BME280_humidity;BME280_pressure;Samples;Min_cycle;Max_cycle;Signal;HPM_P1;HPM_P2
2022/08/13 00:00:34;;;;;;;0.70;0.70;;;20.10;56.90;20.40;96523.00;;;;5115165;28;20694;-84
2022/08/13 00:03:14;;;;;;;0.80;0.80;;;20.10;57.20;20.40;96522.00;;;;5111807;28;20271;-84
2022/08/13 00:05:50;;;;;;;0.80;0.80;;;20.10;57.10;20.40;96518.00;;;;5111569;28;20584;-84
2022/08/13 00:08:22;;;;;;;1.00;1.00;;;20.00;57.20;20.30;96528.00;;;;5111891;28;20666;-84
2022/08/13 00:13:24;;;;;;;0.90;0.90;;;19.90;57.30;20.20;96520.00;;;;5106570;22;20227;-82
2022/08/13 00:15:51;;;;;;;0.90;0.90;;;19.90;57.30;20.20;96517.00;;;;5083035;28;20199;-83
2022/08/13 00:18:24;;;;;;;1.57;1.20;;;19.90;57.40;20.20;96521.00;;;;5074477;28;20242;-82
2022/08/13 00:20:56;;;;;;;1.10;1.00;;;19.90;57.60;20.20;96521.00;;;;5075048;28;20219;-82
2022/08/13 00:23:28;;;;;;;1.47;1.10;;;19.80;57.70;20.10;96519.00;;;;5089573;28;20287;-82
2022/08/13 00:25:59;;;;;;;2.07;1.20;;;19.80;57.70;20.10;96510.00;;;;5061185;28;20278;-82
2022/08/13 00:28:29;;;;;;;0.90;0.90;;;19.80;58.40;20.10;96513.00;;;;5053126;28;20223;-82
2022/08/13 00:30:59;;;;;;;0.80;0.80;;;19.70;57.80;20.10;96508.00;;;;5082833;28;20229;-81
2022/08/13 00:33:26;;;;;;;1.13;0.80;;;19.70;57.90;20.10;96512.00;;;;5083494;28;20196;-82
2022/08/13 00:35:55;;;;;;;0.90;0.90;;;19.70;58.00;20.10;96504.00;;;;5078137;28;20224;-81
2022/08/13 00:38:28;;;;;;;1.50;0.90;;;19.70;58.20;20.00;96506.00;;;;5082453;28;20550;-81
2022/08/13 00:40:59;;;;;;;1.63;1.00;;;19.70;58.30;20.00;96501.00;;;;5070593;28;20217;-81
2022/08/13 00:43:27;;;;;;;0.90;0.90;;;19.70;58.40;20.00;96498.00;;;;5080263;28;20214;-82
2022/08/13 00:45:56;;;;;;;0.80;0.80;;;19.70;58.40;20.00;96492.00;;;;5088644;28;20208;-83
2022/08/13 00:51:10;;;;;;;1.07;0.90;;;19.60;58.50;20.00;96495.00;;;;5072786;28;20227;-84
2022/08/13 00:53:39;;;;;;;1.10;1.10;;;19.60;58.60;20.00;96495.00;;;;5095659;28;20199;-82
2022/08/13 00:56:09;;;;;;;0.90;0.83;;;19.60;58.70;20.00;96494.00;;;;5083016;28;20220;-82
2022/08/13 00:58:38;;;;;;;1.33;1.00;;;19.60;58.90;20.00;96498.00;;;;5086515;28;20200;-82
2022/08/13 01:01:07;;;;;;;3.90;1.00;;;19.60;58.80;20.00;96492.00;;;;5081849;28;20311;-82
2022/08/13 01:03:37;;;;;;;1.10;1.10;;;19.60;58.90;20.00;96494.00;;;;5074373;28;20228;-83
2022/08/13 01:06:08;;;;;;;1.20;1.20;;;19.60;59.00;20.00;96492.00;;;;5060173;28;20196;-83
2022/08/13 01:08:40;;;;;;;1.30;1.20;;;19.60;59.00;20.00;96486.00;;;;5083775;28;20195;-81
2022/08/13 01:11:12;;;;;;;1.37;1.10;;;19.60;59.10;20.00;96489.00;;;;5080160;28;20226;-82
2022/08/13 01:13:44;;;;;;;1.07;0.97;;;19.60;59.30;20.00;96485.00;;;;5086375;28;20642;-82
2022/08/13 01:16:14;;;;;;;1.40;1.30;;;19.60;59.30;20.10;96483.00;;;;5084309;28;20188;-81
2022/08/13 01:18:46;;;;;;;1.10;1.10;;;19.60;59.30;20.10;96480.00;;;;5083250;28;20333;-82
2022/08/13 01:21:17;;;;;;;1.20;1.20;;;19.60;59.40;20.10;96480.00;;;;5101337;28;20191;-81
2022/08/13 01:23:51;;;;;;;0.90;0.90;;;19.60;59.40;20.10;96483.00;;;;5081146;28;20223;-82
2022/08/13 01:26:22;;;;;;;1.27;1.17;;;19.70;59.60;20.10;96480.00;;;;5086381;28;20215;-81
2022/08/13 01:28:51;;;;;;;1.33;1.30;;;19.60;59.40;20.10;96479.00;;;;5077387;28;20204;-81
2022/08/13 01:31:21;;;;;;;0.97;0.97;;;19.70;59.50;20.00;96474.00;;;;5087514;28;20698;-81
2022/08/13 01:33:59;;;;;;;0.90;0.90;;;19.60;59.50;20.10;96475.00;;;;5064183;28;20692;-81
2022/08/13 01:36:28;;;;;;;1.00;1.00;;;19.60;59.50;20.00;96483.00;;;;5084678;28;20195;-81
2022/08/13 01:39:01;;;;;;;1.17;1.17;;;19.60;59.40;20.00;96476.00;;;;5081842;28;20227;-81
2022/08/13 01:41:28;;;;;;;1.30;1.30;;;19.60;59.60;20.00;96473.00;;;;5088610;28;20227;-82
2022/08/13 01:44:00;;;;;;;1.00;1.00;;;19.60;59.60;20.00;96473.00;;;;5075439;28;20197;-81
2022/08/13 01:50:28;;;;;;;1.20;1.20;;;19.60;60.30;20.00;96461.00;;;;5095953;28;20286;-81
2022/08/13 01:52:00;;;;;;;1.10;1.00;;;19.60;60.50;20.00;96470.00;;;;5089219;28;20242;-81
2022/08/13 01:54:30;;;;;;;1.53;1.03;;;19.60;59.90;19.90;96478.00;;;;5084968;28;20265;-82
2022/08/13 01:56:59;;;;;;;1.20;1.10;;;19.60;60.10;19.90;96468.00;;;;5084706;28;20218;-81
2022/08/13 01:59:26;;;;;;;1.17;1.07;;;19.60;60.10;19.90;96476.00;;;;5075380;28;20615;-82
2022/08/13 02:01:54;;;;;;;1.20;1.10;;;19.50;60.10;19.90;96468.00;;;;5082993;28;20199;-82
2022/08/13 02:04:21;;;;;;;1.07;1.03;;;19.50;60.10;19.90;96467.00;;;;5082970;28;20264;-82
2022/08/13 02:06:48;;;;;;;1.97;0.83;;;19.50;60.10;19.90;96473.00;;;;5090126;28;20282;-82
2022/08/13 02:09:16;;;;;;;1.10;1.07;;;19.50;60.10;19.90;96470.00;;;;5081068;28;20239;-81
2022/08/13 02:11:44;;;;;;;1.30;1.20;;;19.50;60.10;19.80;96464.00;;;;5084752;28;20351;-82
2022/08/13 02:14:15;;;;;;;1.27;1.27;;;19.50;60.20;19.80;96469.00;;;;5082987;28;20226;-81
2022/08/13 02:16:42;;;;;;;1.30;1.20;;;19.40;60.20;19.80;96471.00;;;;5064075;28;20196;-81
2022/08/13 02:19:09;;;;;;;1.37;1.30;;;19.40;60.10;19.70;96473.00;;;;5089724;28;20278;-83
2022/08/13 02:21:39;;;;;;;1.20;1.10;;;19.40;60.20;19.70;96471.00;;;;5098059;28;20226;-81
2022/08/13 02:24:13;;;;;;;1.00;1.00;;;19.40;60.20;19.70;96474.00;;;;5075136;28;20201;-82
2022/08/13 02:26:43;;;;;;;1.20;1.20;;;19.40;60.30;19.60;96473.00;;;;5082598;28;20207;-81
2022/08/13 02:29:13;;;;;;;1.20;1.10;;;19.30;60.20;19.60;96472.00;;;;5094898;28;20223;-81
2022/08/13 02:31:42;;;;;;;2.20;1.10;;;19.30;60.30;19.60;96469.00;;;;5089064;28;20334;-82
2022/08/13 02:34:12;;;;;;;1.23;1.13;;;19.30;60.30;19.50;96474.00;;;;5095648;28;20223;-82
2022/08/13 02:36:40;;;;;;;1.40;1.30;;;19.20;60.30;19.50;96472.00;;;;5073773;28;20204;-81
2022/08/13 02:39:10;;;;;;;1.23;1.23;;;19.20;60.40;19.40;96468.00;;;;5085346;28;20228;-81
2022/08/13 02:41:41;;;;;;;1.20;1.20;;;19.20;60.50;19.40;96462.00;;;;5084029;28;20195;-82
2022/08/13 02:44:12;;;;;;;1.50;1.23;;;19.10;60.50;19.40;96465.00;;;;5076091;28;20196;-82
2022/08/13 02:46:40;;;;;;;1.30;1.20;;;19.10;60.60;19.30;96465.00;;;;5079112;28;20557;-82
2022/08/13 02:49:08;;;;;;;1.00;1.00;;;19.10;61.40;19.30;96459.00;;;;5070386;28;20244;-82
2022/08/13 02:51:37;;;;;;;1.20;1.20;;;19.00;60.70;19.30;96460.00;;;;5086209;28;20278;-82
2022/08/13 02:54:06;;;;;;;1.27;1.10;;;19.00;60.90;19.20;96466.00;;;;5091020;28;20199;-82
2022/08/13 02:56:36;;;;;;;1.87;1.43;;;18.90;61.30;19.20;96465.00;;;;5095898;28;20226;-82
2022/08/13 02:59:08;;;;;;;1.93;1.50;;;18.90;61.10;19.20;96462.00;;;;5081146;28;20598;-81
2022/08/13 03:01:39;;;;;;;2.07;1.03;;;18.90;61.20;19.10;96463.00;;;;5085947;28;20213;-81
2022/08/13 03:04:07;;;;;;;1.00;1.00;;;18.90;61.40;19.10;96467.00;;;;5087601;28;20240;-82
2022/08/13 03:06:35;;;;;;;1.47;1.37;;;18.80;61.30;19.10;96470.00;;;;5079824;28;20201;-81
2022/08/13 03:09:02;;;;;;;1.40;1.40;;;18.80;61.30;19.10;96474.00;;;;5079657;28;20195;-81
2022/08/13 03:11:31;;;;;;;1.30;1.20;;;18.80;61.40;19.00;96460.00;;;;5096634;28;20219;-82
2022/08/13 03:14:04;;;;;;;1.67;1.47;;;18.70;61.30;19.00;96474.00;;;;5067707;28;20189;-82
2022/08/13 03:16:32;;;;;;;1.53;1.43;;;18.70;61.40;19.00;96470.00;;;;5086425;28;20203;-82
2022/08/13 03:19:00;;;;;;;1.30;1.20;;;18.70;61.40;18.90;96468.00;;;;5084331;28;20188;-82
2022/08/13 03:21:32;;;;;;;1.30;1.07;;;18.60;61.50;18.90;96472.00;;;;5086910;28;20203;-81
2022/08/13 03:24:00;;;;;;;3.20;1.27;;;18.60;61.60;18.80;96476.00;;;;5077122;28;20211;-82
2022/08/13 03:26:28;;;;;;;1.40;1.30;;;18.50;61.60;18.80;96471.00;;;;5088776;28;20688;-82
2022/08/13 03:28:55;;;;;;;1.40;1.30;;;18.50;61.60;18.80;96472.00;;;;5083497;28;20196;-82
2022/08/13 03:31:24;;;;;;;1.40;1.30;;;18.50;61.70;18.70;96467.00;;;;5085366;28;20452;-81
2022/08/13 03:33:52;;;;;;;1.00;1.00;;;18.50;61.90;18.70;96462.00;;;;5076652;28;20193;-82
2022/08/13 03:36:22;;;;;;;1.90;1.20;;;18.40;61.90;18.70;96454.00;;;;5088478;28;20671;-82
2022/08/13 03:38:49;;;;;;;1.03;1.03;;;18.40;62.10;18.70;96465.00;;;;5084109;28;20287;-83
2022/08/13 03:41:16;;;;;;;1.33;1.23;;;18.40;62.20;18.60;96463.00;;;;5084715;28;20224;-82
2022/08/13 03:43:47;;;;;;;1.40;1.30;;;18.30;62.40;18.70;96464.00;;;;5076790;28;20260;-81
2022/08/13 03:46:17;;;;;;;1.40;1.30;;;18.30;62.60;18.60;96464.00;;;;5097706;28;20195;-82
2022/08/13 03:48:47;;;;;;;1.37;1.27;;;18.30;62.70;18.60;96460.00;;;;5064938;28;20291;-82
2022/08/13 03:51:16;;;;;;;1.23;1.13;;;18.30;62.80;18.60;96455.00;;;;5097746;28;20716;-82
2022/08/13 03:53:45;;;;;;;1.13;1.13;;;18.30;63.70;18.60;96455.00;;;;5092070;28;20881;-81
2022/08/13 03:56:15;;;;;;;1.43;1.37;;;18.30;63.10;18.60;96452.00;;;;5088246;28;20726;-81
2022/08/13 03:58:44;;;;;;;1.70;1.60;;;18.30;63.20;18.60;96454.00;;;;5095687;28;20604;-82
2022/08/13 04:01:13;;;;;;;1.60;1.50;;;18.30;63.30;18.60;96452.00;;;;5087492;28;20195;-82
2022/08/13 04:03:41;;;;;;;1.40;1.40;;;18.30;63.30;18.60;96450.00;;;;5084377;28;20204;-82
2022/08/13 04:06:15;;;;;;;1.90;1.30;;;18.30;63.20;18.60;96448.00;;;;5073788;28;20191;-82
2022/08/13 04:08:45;;;;;;;7.77;1.73;;;18.30;63.20;18.60;96452.00;;;;5083786;28;20645;-82
2022/08/13 04:11:15;;;;;;;1.50;1.40;;;18.20;62.90;18.50;96451.00;;;;5073059;28;20243;-82
2022/08/13 04:13:43;;;;;;;1.37;1.27;;;18.20;62.90;18.50;96456.00;;;;5069678;28;20196;-82
2022/08/13 04:16:15;;;;;;;1.80;1.70;;;18.20;62.90;18.50;96451.00;;;;5062746;28;20192;-82
2022/08/13 04:18:45;;;;;;;2.20;1.30;;;18.20;62.90;18.50;96444.00;;;;5067321;28;20188;-82
2022/08/13 04:21:16;;;;;;;1.80;1.70;;;18.20;63.00;18.50;96438.00;;;;5065679;28;20280;-82
2022/08/13 04:23:46;;;;;;;1.50;1.40;;;18.20;63.30;18.50;96439.00;;;;5085812;28;20191;-82
2022/08/13 04:26:16;;;;;;;2.73;1.43;;;18.20;64.10;18.50;96443.00;;;;5091319;28;20203;-82
2022/08/13 04:28:45;;;;;;;1.30;1.30;;;18.20;63.30;18.50;96431.00;;;;5096063;28;20230;-81
2022/08/13 04:31:15;;;;;;;1.40;1.30;;;18.10;63.20;18.50;96431.00;;;;5069051;28;20591;-82
2022/08/13 04:33:42;;;;;;;1.37;1.27;;;18.10;63.20;18.40;96428.00;;;;5092285;28;20612;-81
2022/08/13 04:36:11;;;;;;;1.93;1.53;;;18.10;63.20;18.40;96436.00;;;;5073529;28;20195;-83
2022/08/13 04:38:38;;;;;;;1.43;1.33;;;18.10;63.20;18.40;96432.00;;;;5088211;28;20195;-81
2022/08/13 04:41:07;;;;;;;1.87;1.27;;;18.10;63.50;18.40;96441.00;;;;5078719;28;20312;-82
2022/08/13 04:43:35;;;;;;;1.40;1.30;;;18.10;63.80;18.50;96436.00;;;;5068488;28;20222;-81
2022/08/13 04:46:02;;;;;;;1.73;1.60;;;18.10;63.90;18.50;96443.00;;;;5074464;28;20215;-83
2022/08/13 04:48:32;;;;;;;1.70;1.60;;;18.10;64.10;18.50;96442.00;;;;5097117;28;20326;-82
2022/08/13 04:51:00;;;;;;;1.80;1.40;;;18.10;64.30;18.50;96436.00;;;;5061044;28;20349;-82
2022/08/13 04:53:30;;;;;;;1.43;1.40;;;18.10;64.30;18.50;96441.00;;;;5075595;28;20232;-82
2022/08/13 04:55:58;;;;;;;1.33;1.23;;;18.10;64.40;18.50;96438.00;;;;5083611;28;20407;-82
2022/08/13 04:58:32;;;;;;;1.60;1.50;;;18.10;64.50;18.50;96442.00;;;;5084719;28;20233;-82
2022/08/13 05:01:00;;;;;;;1.30;1.30;;;18.20;64.70;18.60;96439.00;;;;5091858;28;20229;-82
2022/08/13 05:03:28;;;;;;;1.47;1.43;;;18.20;64.70;18.60;96435.00;;;;5066739;28;20196;-82
2022/08/13 05:05:55;;;;;;;1.70;1.60;;;18.20;64.80;18.60;96432.00;;;;5060022;28;20192;-82
2022/08/13 05:08:22;;;;;;;1.33;1.27;;;18.30;64.90;18.70;96438.00;;;;5060432;28;20203;-82
2022/08/13 05:10:52;;;;;;;1.60;1.50;;;18.30;64.90;18.80;96425.00;;;;5064396;28;20231;-82
2022/08/13 05:13:25;;;;;;;1.80;1.70;;;18.30;65.00;18.80;96431.00;;;;5055313;28;20251;-82
2022/08/13 05:15:56;;;;;;;1.73;1.63;;;18.40;65.70;18.80;96431.00;;;;5066900;28;20203;-82
2022/08/13 05:18:24;;;;;;;1.50;1.40;;;18.40;64.90;18.90;96433.00;;;;5074762;28;20249;-82
2022/08/13 05:20:53;;;;;;;1.40;1.30;;;18.40;64.80;18.90;96433.00;;;;5075030;28;20775;-82
2022/08/13 05:23:21;;;;;;;1.37;1.27;;;18.40;64.90;18.90;96430.00;;;;5067096;28;20203;-81
2022/08/13 05:25:50;;;;;;;1.33;1.23;;;18.50;65.20;19.00;96434.00;;;;5066815;28;20192;-82
2022/08/13 05:28:18;;;;;;;1.93;1.60;;;18.50;65.20;19.00;96433.00;;;;5084768;28;20217;-81
2022/08/13 05:30:46;;;;;;;1.40;1.30;;;18.50;65.20;19.10;96437.00;;;;5081681;28;20274;-81
2022/08/13 05:33:18;;;;;;;2.63;1.70;;;18.60;65.40;19.10;96440.00;;;;5071729;28;20543;-81
2022/08/13 05:35:48;;;;;;;1.70;1.60;;;18.60;65.50;19.20;96445.00;;;;5089430;28;20287;-82
2022/08/13 05:38:16;;;;;;;1.73;1.63;;;18.60;65.50;19.20;96446.00;;;;5076019;28;20203;-82
2022/08/13 05:40:44;;;;;;;1.90;1.77;;;18.70;65.50;19.30;96436.00;;;;5089859;28;20306;-82
2022/08/13 05:43:13;;;;;;;1.70;1.60;;;18.70;65.50;19.30;96438.00;;;;5083991;28;20221;-82
2022/08/13 05:45:48;;;;;;;1.80;1.70;;;18.80;65.80;19.40;96437.00;;;;5082796;28;20220;-82
2022/08/13 05:48:17;;;;;;;1.40;1.30;;;18.80;65.70;19.50;96436.00;;;;5075762;28;20190;-83
2022/08/13 05:50:44;;;;;;;1.83;1.73;;;18.90;65.80;19.60;96435.00;;;;5099672;28;20219;-82
2022/08/13 05:53:13;;;;;;;2.27;2.07;;;19.00;65.90;19.70;96440.00;;;;5111490;22;20241;-86
2022/08/13 05:55:41;;;;;;;1.27;1.27;;;19.00;65.90;19.70;96440.00;;;;5090679;28;20256;-86
2022/08/13 05:58:12;;;;;;;1.80;1.70;;;19.10;66.00;19.80;96446.00;;;;5091756;28;20582;-86
2022/08/13 06:03:28;;;;;;;2.10;2.00;;;19.20;66.10;19.90;96452.00;;;;5077626;28;20222;-86
2022/08/13 06:05:57;;;;;;;2.07;1.97;;;19.30;66.20;20.00;96454.00;;;;5092802;28;20192;-86
2022/08/13 06:08:28;;;;;;;2.00;1.90;;;19.40;66.10;20.10;96462.00;;;;5085158;28;20196;-87
2022/08/13 06:10:57;;;;;;;2.00;1.90;;;19.40;66.00;20.10;96458.00;;;;5078664;28;20250;-86
2022/08/13 06:13:25;;;;;;;2.40;2.20;;;19.40;65.80;20.20;96454.00;;;;5079647;28;20215;-87
2022/08/13 06:15:58;;;;;;;1.73;1.63;;;19.50;65.70;20.20;96457.00;;;;5085659;28;20188;-87
2022/08/13 06:18:33;;;;;;;1.80;1.70;;;19.60;65.50;20.30;96451.00;;;;5093531;28;20295;-86
2022/08/13 06:21:03;;;;;;;1.87;1.70;;;19.60;65.30;20.30;96447.00;;;;5093656;28;20706;-86
2022/08/13 06:23:33;;;;;;;1.60;1.50;;;19.70;65.10;20.40;96452.00;;;;5075399;28;20307;-86
2022/08/13 06:26:01;;;;;;;1.80;1.70;;;19.70;64.80;20.40;96449.00;;;;5092481;28;20238;-87
2022/08/13 06:28:30;;;;;;;2.10;1.57;;;19.80;64.70;20.50;96447.00;;;;5093244;28;20213;-86
2022/08/13 06:31:01;;;;;;;1.70;1.60;;;19.80;64.70;20.50;96457.00;;;;5088572;28;20390;-86
2022/08/13 06:33:33;;;;;;;1.43;1.43;;;19.90;64.70;20.60;96454.00;;;;5081995;28;20208;-87
2022/08/13 06:36:02;;;;;;;1.77;1.67;;;19.90;64.70;20.60;96451.00;;;;5088187;28;20228;-87
2022/08/13 06:38:32;;;;;;;1.50;1.40;;;20.00;64.70;20.70;96452.00;;;;5080925;28;20204;-84
2022/08/13 06:41:01;;;;;;;1.90;1.80;;;20.10;64.70;20.70;96455.00;;;;5072763;28;20230;-87
2022/08/13 06:43:30;;;;;;;1.73;1.63;;;20.10;65.20;20.80;96455.00;;;;5072305;28;20307;-87
2022/08/13 06:45:59;;;;;;;1.60;1.50;;;20.20;64.40;20.80;96458.00;;;;5076058;28;20223;-88
2022/08/13 06:48:30;;;;;;;1.57;1.47;;;20.20;64.30;20.90;96459.00;;;;5083959;28;20192;-89
2022/08/13 06:50:57;;;;;;;1.33;1.27;;;20.30;65.10;20.90;96457.00;;;;5079618;28;20187;-88
2022/08/13 06:53:24;;;;;;;2.10;1.70;;;20.30;64.20;21.00;96463.00;;;;5082172;28;20246;-89
2022/08/13 06:55:53;;;;;;;2.37;2.10;;;20.40;64.00;21.10;96453.00;;;;5091229;28;20219;-88
2022/08/13 06:58:25;;;;;;;1.97;1.87;;;20.50;63.70;21.10;96464.00;;;;5092752;28;20195;-87
2022/08/13 07:00:55;;;;;;;2.67;1.90;;;20.50;63.40;21.20;96460.00;;;;5091690;28;20231;-86
2022/08/13 07:03:28;;;;;;;1.70;1.60;;;20.60;63.20;21.20;96461.00;;;;5093240;28;20687;-87
2022/08/13 07:05:57;;;;;;;1.60;1.50;;;20.60;62.90;21.30;96460.00;;;;5090860;28;20683;-86
2022/08/13 07:08:27;;;;;;;1.73;1.63;;;20.70;62.90;21.40;96460.00;;;;5080002;28;20252;-86
2022/08/13 07:13:45;;;;;;;2.00;1.80;;;20.80;62.80;21.60;96467.00;;;;5097000;28;20246;-85
2022/08/13 07:16:16;;;;;;;1.43;1.33;;;20.90;62.90;21.80;96462.00;;;;5090699;28;20260;-86
2022/08/13 07:18:46;;;;;;;1.40;1.30;;;21.00;62.60;21.90;96461.00;;;;5093627;28;20206;-86
2022/08/13 07:21:16;;;;;;;1.57;1.47;;;21.20;62.60;22.10;96459.00;;;;5084001;28;20253;-86
2022/08/13 07:23:44;;;;;;;1.70;1.60;;;21.30;62.80;22.30;96469.00;;;;5090257;28;20230;-86
2022/08/13 07:26:13;;;;;;;1.30;1.30;;;21.40;62.50;22.50;96470.00;;;;5099522;28;20231;-86
2022/08/13 07:28:42;;;;;;;1.23;1.23;;;21.60;62.10;22.60;96462.00;;;;5090222;28;20201;-86
2022/08/13 07:31:10;;;;;;;1.10;1.10;;;21.70;62.10;22.90;96467.00;;;;5094171;28;20207;-86
2022/08/13 07:33:42;;;;;;;1.47;1.37;;;21.90;61.90;23.00;96468.00;;;;5096938;28;20583;-86
2022/08/13 07:36:13;;;;;;;1.10;1.00;;;22.10;61.80;23.20;96468.00;;;;5086757;28;20200;-86
2022/08/13 07:38:42;;;;;;;1.40;1.10;;;22.20;61.60;23.40;96470.00;;;;5086502;28;20286;-87
2022/08/13 07:41:11;;;;;;;1.30;1.20;;;22.40;61.30;23.60;96473.00;;;;5099613;28;20199;-84
2022/08/13 07:43:43;;;;;;;1.00;1.00;;;22.50;60.70;23.70;96465.00;;;;5085528;28;20307;-85
2022/08/13 07:46:15;;;;;;;1.20;1.00;;;22.70;60.20;23.90;96467.00;;;;5094255;28;20590;-84
2022/08/13 07:48:49;;;;;;;1.47;1.40;;;22.90;59.80;24.10;96476.00;;;;5094895;28;20210;-83
2022/08/13 07:51:20;;;;;;;0.97;0.97;;;23.00;59.50;24.30;96478.00;;;;5095251;28;20282;-85
2022/08/13 07:53:50;;;;;;;1.10;1.10;;;23.20;59.20;24.50;96476.00;;;;5093291;28;20693;-85
2022/08/13 07:56:21;;;;;;;1.17;1.17;;;23.30;58.90;24.70;96479.00;;;;5093971;28;20206;-85
2022/08/13 07:58:49;;;;;;;1.00;1.00;;;23.50;58.60;24.80;96487.00;;;;5087388;28;20193;-88
2022/08/13 08:01:18;;;;;;;1.33;1.20;;;23.70;58.40;25.00;96486.00;;;;5090234;28;20604;-87
2022/08/13 08:03:48;;;;;;;1.07;1.00;;;23.90;58.30;25.20;96486.00;;;;5089962;28;20240;-87
2022/08/13 08:06:18;;;;;;;1.80;0.80;;;24.00;57.80;25.30;96486.00;;;;5091525;28;20350;-88
2022/08/13 08:08:48;;;;;;;1.07;1.07;;;24.20;57.40;25.50;96476.00;;;;5084555;28;20236;-88
2022/08/13 08:13:59;;;;;;;1.33;1.10;;;24.50;57.10;25.90;96479.00;;;;5094638;28;20271;-87
2022/08/13 08:16:30;;;;;;;0.93;0.93;;;24.70;56.80;26.10;96488.00;;;;5086619;28;20198;-87
2022/08/13 08:18:59;;;;;;;1.30;0.80;;;24.90;56.70;26.30;96485.00;;;;5077902;28;20208;-87
2022/08/13 08:21:29;;;;;;;0.90;0.90;;;25.00;56.30;26.40;96488.00;;;;5093633;28;20571;-88
2022/08/13 08:23:59;;;;;;;3.10;0.80;;;25.20;55.90;26.60;96487.00;;;;5075777;28;20588;-88
2022/08/13 08:26:28;;;;;;;1.07;0.83;;;25.30;56.10;26.80;96492.00;;;;5079653;28;20203;-89
2022/08/13 08:28:56;;;;;;;1.10;1.00;;;25.50;55.60;27.00;96487.00;;;;5082660;28;20223;-89
2022/08/13 08:31:26;;;;;;;0.90;0.77;;;25.70;55.30;27.20;96498.00;;;;5092108;28;20195;-89
2022/08/13 08:33:56;;;;;;;0.80;0.80;;;25.90;55.00;27.40;96495.00;;;;5095925;28;20246;-88
2022/08/13 08:36:23;;;;;;;0.80;0.80;;;26.00;54.50;27.60;96487.00;;;;5095524;28;20549;-89
2022/08/13 08:44:32;;;;;;;1.90;0.90;;;26.70;53.40;28.30;96491.00;;;;5085876;28;20230;-87
2022/08/13 08:47:01;;;;;;;1.13;0.80;;;26.90;53.20;28.50;96493.00;;;;5081484;28;20188;-87
2022/08/13 08:49:30;;;;;;;0.70;0.70;;;27.10;52.30;28.70;96477.00;;;;5089813;28;20221;-88
2022/08/13 08:51:59;;;;;;;0.70;0.70;;;27.30;52.10;29.00;96494.00;;;;5088342;28;20279;-90
2022/08/13 08:54:28;;;;;;;1.00;0.80;;;27.40;51.80;29.20;96491.00;;;;5084734;28;20272;-87
2022/08/13 08:56:59;;;;;;;2.53;1.23;;;27.70;51.60;29.40;96492.00;;;;5089782;28;20199;-88
2022/08/13 08:59:28;;;;;;;1.30;0.73;;;27.90;51.10;29.60;96494.00;;;;5095570;28;20221;-88
2022/08/13 09:01:57;;;;;;;2.38;0.80;;;28.10;51.00;29.80;96495.00;;;;5080968;28;20203;-88
2022/08/13 09:04:28;;;;;;;0.80;0.80;;;28.30;50.40;30.00;96497.00;;;;5090760;28;20223;-89
2022/08/13 09:06:58;;;;;;;0.80;0.80;;;28.40;49.70;30.10;96491.00;;;;5084667;28;20199;-87
2022/08/13 09:09:26;;;;;;;0.82;0.82;;;28.60;49.30;30.30;96500.00;;;;5088540;28;20811;-86
2022/08/13 09:11:56;;;;;;;0.70;0.70;;;28.70;48.90;30.50;96498.00;;;;5080131;28;20220;-87
2022/08/13 09:14:30;;;;;;;0.90;0.85;;;28.90;49.00;30.60;96504.00;;;;5080473;28;20318;-88
2022/08/13 09:16:59;;;;;;;1.05;0.98;;;29.10;48.40;30.80;96501.00;;;;5095168;28;20195;-89
2022/08/13 09:19:28;;;;;;;1.13;0.80;;;29.20;48.60;31.00;96499.00;;;;5091814;28;20196;-90
2022/08/13 09:21:57;;;;;;;0.73;0.70;;;29.40;48.40;31.20;96495.00;;;;5077152;28;20223;-87
2022/08/13 09:24:25;;;;;;;1.50;0.80;;;29.50;47.70;31.40;96497.00;;;;5089325;28;20207;-88
2022/08/13 09:26:55;;;;;;;0.70;0.70;;;29.70;47.60;31.50;96494.00;;;;5090546;28;20851;-88
2022/08/13 09:29:24;;;;;;;1.30;0.90;;;29.90;47.60;31.80;96497.00;;;;5094599;28;20222;-87
2022/08/13 09:31:58;;;;;;;0.80;0.80;;;30.00;47.00;31.90;96493.00;;;;5091846;28;20654;-87
2022/08/13 09:34:27;;;;;;;0.70;0.70;;;30.20;46.40;32.10;96493.00;;;;5089799;28;20215;-87
2022/08/13 09:36:57;;;;;;;0.70;0.70;;;30.40;46.50;32.20;96492.00;;;;5097113;28;20196;-89
2022/08/13 09:39:33;;;;;;;0.75;0.75;;;30.50;46.20;32.30;96499.00;;;;5097961;28;20203;-87
2022/08/13 09:42:08;;;;;;;0.80;0.73;;;30.60;45.50;32.30;96499.00;;;;5094681;28;20236;-87
2022/08/13 09:44:42;;;;;;;0.90;0.90;;;30.70;45.30;32.50;96499.00;;;;5080111;28;20709;-87
2022/08/13 09:47:10;;;;;;;0.85;0.85;;;30.90;45.60;32.60;96496.00;;;;5097496;28;20191;-87
2022/08/13 09:49:37;;;;;;;0.90;0.90;;;31.00;44.70;32.70;96492.00;;;;5084985;28;20652;-87
2022/08/13 09:52:06;;;;;;;1.85;0.80;;;31.10;44.50;32.80;96487.00;;;;5097549;28;20268;-88
2022/08/13 09:54:34;;;;;;;0.88;0.80;;;31.20;44.70;33.00;96487.00;;;;5090308;28;20306;-88
2022/08/13 09:57:02;;;;;;;1.10;1.10;;;31.30;44.70;33.20;96493.00;;;;5088207;28;20203;-88
2022/08/13 09:59:33;;;;;;;0.90;0.90;;;31.40;44.10;33.30;96500.00;;;;5093769;28;20222;-87
2022/08/13 10:02:05;;;;;;;2.13;0.70;;;31.50;44.00;33.30;96498.00;;;;5093706;28;20302;-87
2022/08/13 10:04:33;;;;;;;0.98;0.98;;;31.60;43.60;33.40;96498.00;;;;5080598;28;20219;-88
2022/08/13 10:07:01;;;;;;;1.98;0.88;;;31.70;43.80;33.40;96489.00;;;;5085708;28;20401;-86
2022/08/13 10:09:28;;;;;;;1.75;0.98;;;31.80;43.60;33.60;96498.00;;;;5091777;28;20195;-88
2022/08/13 10:11:55;;;;;;;1.42;0.98;;;31.80;43.40;33.70;96493.00;;;;5093160;28;20248;-88
2022/08/13 10:14:23;;;;;;;1.30;0.77;;;31.90;43.40;33.80;96494.00;;;;5081341;28;20692;-88
2022/08/13 10:16:52;;;;;;;0.82;0.82;;;32.00;43.30;33.90;96487.00;;;;5093872;28;20256;-90
2022/08/13 10:19:20;;;;;;;0.90;0.90;;;32.10;43.20;34.00;96495.00;;;;5093039;28;20273;-88
2022/08/13 10:21:48;;;;;;;0.80;0.80;;;32.20;42.80;34.00;96488.00;;;;5085411;28;20847;-87
2022/08/13 10:24:15;;;;;;;0.98;0.98;;;32.30;42.50;34.20;96495.00;;;;5074144;28;20274;-87
2022/08/13 10:26:42;;;;;;;0.75;0.75;;;32.40;42.60;34.20;96498.00;;;;5074485;28;20257;-86
2022/08/13 10:29:11;;;;;;;1.13;0.70;;;32.50;42.40;34.30;96500.00;;;;5074103;28;20238;-87
2022/08/13 10:31:39;;;;;;;0.70;0.70;;;32.60;42.00;34.40;96487.00;;;;5081313;28;20260;-87
2022/08/13 10:34:07;;;;;;;0.95;0.70;;;32.80;42.20;34.50;96488.00;;;;5097581;28;20746;-87
2022/08/13 10:36:37;;;;;;;1.38;0.70;;;32.90;41.90;34.60;96492.00;;;;5091277;28;20229;-89
2022/08/13 10:39:05;;;;;;;0.68;0.68;;;33.00;41.60;34.60;96478.00;;;;5084626;28;20290;-86
2022/08/13 10:41:33;;;;;;;0.98;0.98;;;33.10;41.50;34.60;96484.00;;;;5093790;28;20196;-86
2022/08/13 10:44:00;;;;;;;0.90;0.90;;;33.20;41.00;34.60;96485.00;;;;5070187;28;21151;-87
2022/08/13 10:46:31;;;;;;;0.80;0.80;;;33.30;40.70;34.60;96474.00;;;;5070922;28;20224;-88
2022/08/13 10:48:59;;;;;;;0.80;0.80;;;33.30;40.70;34.50;96475.00;;;;5078188;28;20206;-86
2022/08/13 10:51:28;;;;;;;1.38;0.90;;;33.40;40.60;34.50;96477.00;;;;5082791;28;20200;-87
2022/08/13 10:53:58;;;;;;;1.15;1.00;;;33.40;40.30;34.50;96472.00;;;;5085768;28;20250;-87
2022/08/13 10:56:28;;;;;;;1.52;1.17;;;33.40;39.50;34.40;96476.00;;;;5093090;28;20203;-87
2022/08/13 10:58:57;;;;;;;1.02;0.98;;;33.40;39.80;34.30;96472.00;;;;5089828;28;20219;-87
2022/08/13 11:01:26;;;;;;;0.70;0.70;;;33.40;39.30;34.20;96472.00;;;;5086255;28;20202;-87
2022/08/13 11:03:58;;;;;;;0.85;0.85;;;33.40;39.00;34.10;96469.00;;;;5088293;28;20249;-87
2022/08/13 11:06:27;;;;;;;1.10;1.00;;;33.30;38.70;33.90;96471.00;;;;5084493;28;20188;-87
2022/08/13 11:08:59;;;;;;;1.70;0.93;;;33.20;38.70;33.80;96469.00;;;;5093127;28;20238;-87
2022/08/13 11:11:28;;;;;;;2.83;1.40;;;33.10;38.80;33.60;96466.00;;;;5093139;28;20241;-87
2022/08/13 11:13:55;;;;;;;1.00;0.80;;;33.00;39.30;33.50;96469.00;;;;5092332;28;20275;-88
2022/08/13 11:19:14;;;;;;;1.40;1.13;;;32.70;38.90;33.20;96462.00;;;;5082406;28;20300;-87
2022/08/13 11:21:44;;;;;;;0.75;0.75;;;32.60;39.00;33.10;96456.00;;;;5093117;28;20207;-88
2022/08/13 11:24:13;;;;;;;0.80;0.80;;;32.40;39.00;32.90;96460.00;;;;5093207;28;20614;-87
2022/08/13 11:26:41;;;;;;;0.80;0.80;;;32.30;39.00;32.80;96461.00;;;;5095504;28;20591;-87
2022/08/13 11:29:08;;;;;;;1.10;1.00;;;32.10;39.10;32.70;96465.00;;;;5092806;28;20187;-88